Time;durP1;ratioP1;P1;durP2;ratioP2;P2;SDS_P1;SDS_P2;PMS_P1;PMS_P2;Temp;Humidity;BMP_temperature;BMP_pressure;BME280_temperature;BME280_humidity;BME280_pressure;Samples;Min_cycle;Max_cycle;Signal;HPM_P1;HPM_P2
2022/06/18 00:02:18;;;;;;;3.70;3.40;;;18.90;99.90;;;;;;5091481;28;20527;-49
2022/06/18 00:04:46;;;;;;;2.90;2.70;;;18.90;99.90;;;;;;5091507;28;20936;-47
2022/06/18 00:07:18;;;;;;;3.97;3.67;;;18.90;99.90;;;;;;5091471;28;20544;-50
2022/06/18 00:09:55;;;;;;;4.43;3.67;;;18.90;99.90;;;;;;5091450;28;20475;-47
2022/06/18 00:15:14;;;;;;;3.07;2.80;;;18.80;99.90;;;;;;5091675;28;20427;-49
2022/06/18 00:17:42;;;;;;;3.90;3.27;;;18.80;99.90;;;;;;5091304;28;20486;-47
2022/06/18 00:20:11;;;;;;;3.77;3.47;;;18.70;99.90;;;;;;5091041;28;20709;-47
2022/06/18 00:22:39;;;;;;;3.43;3.20;;;18.70;99.90;;;;;;5091236;28;20824;-51
2022/06/18 00:25:17;;;;;;;3.90;3.50;;;18.70;99.90;;;;;;5091495;28;20533;-47
2022/06/18 00:27:45;;;;;;;4.47;3.27;;;18.60;99.90;;;;;;5091297;28;20479;-50
2022/06/18 00:30:15;;;;;;;2.80;2.60;;;18.60;99.90;;;;;;5091012;28;20475;-47
2022/06/18 00:32:42;;;;;;;3.60;3.30;;;18.60;99.90;;;;;;5090888;28;20439;-47
2022/06/18 00:35:10;;;;;;;4.43;3.47;;;18.70;99.90;;;;;;5091210;28;20885;-46
2022/06/18 00:37:38;;;;;;;4.00;3.30;;;18.70;99.90;;;;;;5090938;28;21079;-48
2022/06/18 00:40:16;;;;;;;3.47;3.17;;;18.50;99.90;;;;;;5090784;28;20443;-48
2022/06/18 00:42:44;;;;;;;5.23;3.37;;;18.40;99.90;;;;;;5091674;28;20492;-46
2022/06/18 00:45:16;;;;;;;3.63;2.90;;;18.50;99.90;;;;;;5094853;28;20450;-47
2022/06/18 00:47:52;;;;;;;4.17;3.43;;;18.50;99.90;;;;;;5094984;28;20447;-47
2022/06/18 00:50:24;;;;;;;4.70;3.10;;;18.40;99.90;;;;;;5094389;28;20554;-48
2022/06/18 00:52:55;;;;;;;4.20;3.13;;;18.40;99.90;;;;;;5095200;28;20936;-47
2022/06/18 00:55:30;;;;;;;3.60;3.30;;;18.30;99.90;;;;;;5094607;28;20474;-51
2022/06/18 00:58:02;;;;;;;3.60;3.30;;;18.40;99.90;;;;;;5094552;28;20472;-48
2022/06/18 01:00:36;;;;;;;3.47;3.17;;;18.40;99.90;;;;;;5094704;28;20463;-47
2022/06/18 01:03:03;;;;;;;3.10;2.90;;;18.40;99.90;;;;;;5094897;28;20447;-47
2022/06/18 01:05:36;;;;;;;4.00;3.60;;;18.40;99.90;;;;;;5094777;28;20504;-47
2022/06/18 01:08:11;;;;;;;4.17;3.00;;;18.40;99.90;;;;;;5094697;28;20451;-48
2022/06/18 01:10:42;;;;;;;4.03;3.60;;;18.30;99.90;;;;;;5094670;28;20481;-47
2022/06/18 01:13:12;;;;;;;3.70;2.80;;;18.30;99.90;;;;;;5094801;28;20443;-50
2022/06/18 01:15:41;;;;;;;3.03;2.73;;;18.20;99.90;;;;;;5094552;28;21029;-49
2022/06/18 01:18:09;;;;;;;3.37;3.07;;;18.20;99.90;;;;;;5094205;28;20447;-50
2022/06/18 01:20:42;;;;;;;5.00;3.30;;;18.20;99.90;;;;;;5094122;28;20439;-50
2022/06/18 01:23:20;;;;;;;3.90;3.17;;;18.20;99.90;;;;;;5094612;28;20436;-48
2022/06/18 01:25:48;;;;;;;5.40;3.47;;;18.00;99.90;;;;;;5094433;28;20546;-47
2022/06/18 01:28:16;;;;;;;4.83;3.20;;;18.00;99.90;;;;;;5094299;28;20463;-48
2022/06/18 01:30:45;;;;;;;3.90;3.50;;;18.10;99.90;;;;;;5093825;28;20479;-47
2022/06/18 01:33:13;;;;;;;3.70;3.17;;;18.10;99.90;;;;;;5094192;28;20443;-47
2022/06/18 01:35:44;;;;;;;3.60;3.30;;;18.10;99.90;;;;;;5093897;28;20466;-47
2022/06/18 01:38:12;;;;;;;6.43;3.13;;;18.10;99.90;;;;;;5094360;28;20470;-47
2022/06/18 01:40:46;;;;;;;3.77;3.37;;;18.00;99.90;;;;;;5093616;28;20473;-48
2022/06/18 01:43:17;;;;;;;3.87;3.10;;;18.00;99.90;;;;;;5093922;28;20972;-47
2022/06/18 01:45:46;;;;;;;3.30;3.00;;;18.00;99.90;;;;;;5093668;28;20980;-47
2022/06/18 01:48:20;;;;;;;3.10;2.60;;;18.00;99.90;;;;;;5093746;28;20508;-52
2022/06/18 01:50:52;;;;;;;3.50;3.20;;;18.00;99.90;;;;;;5093513;28;20528;-50
2022/06/18 01:53:23;;;;;;;3.40;3.07;;;18.00;99.90;;;;;;5093643;28;20451;-46
2022/06/18 01:55:54;;;;;;;3.77;3.43;;;18.00;99.90;;;;;;5092540;28;20822;-49
2022/06/18 01:58:27;;;;;;;3.63;3.33;;;18.00;99.90;;;;;;5093744;28;20439;-47
2022/06/18 02:00:58;;;;;;;3.40;3.10;;;17.90;99.90;;;;;;5093444;28;20467;-50
2022/06/18 02:03:25;;;;;;;4.07;3.27;;;17.80;99.90;;;;;;5093926;28;20439;-46
2022/06/18 02:05:52;;;;;;;3.40;3.10;;;17.70;99.90;;;;;;5094124;28;20467;-46
2022/06/18 02:08:20;;;;;;;3.53;3.03;;;17.80;99.90;;;;;;5094796;28;20939;-47
2022/06/18 02:10:52;;;;;;;4.07;3.67;;;17.80;99.90;;;;;;5093068;28;20559;-49
2022/06/18 02:13:23;;;;;;;3.37;3.07;;;17.70;99.90;;;;;;5093524;28;20443;-48
2022/06/18 02:15:53;;;;;;;3.60;3.00;;;17.70;99.90;;;;;;5093240;28;20468;-47
2022/06/18 02:18:20;;;;;;;3.90;3.60;;;17.60;99.90;;;;;;5093156;28;20448;-47
2022/06/18 02:20:51;;;;;;;3.73;3.40;;;17.70;99.90;;;;;;5093332;28;20458;-49
2022/06/18 02:23:18;;;;;;;4.30;3.90;;;17.70;99.90;;;;;;5093476;28;20775;-50
2022/06/18 02:25:46;;;;;;;3.40;3.10;;;17.70;99.90;;;;;;5093083;28;20459;-47
2022/06/18 02:28:21;;;;;;;5.20;3.00;;;17.80;99.90;;;;;;5093137;28;20986;-47
2022/06/18 02:30:51;;;;;;;3.30;2.97;;;17.70;99.90;;;;;;5092770;28;20575;-52
2022/06/18 02:33:28;;;;;;;3.23;3.03;;;17.70;99.90;;;;;;5092842;28;20490;-47
2022/06/18 02:35:56;;;;;;;5.03;3.67;;;17.70;99.90;;;;;;5092697;28;20469;-49
2022/06/18 02:38:24;;;;;;;3.60;3.30;;;17.70;99.90;;;;;;5092791;28;20494;-47
2022/06/18 02:40:51;;;;;;;3.33;2.60;;;17.60;99.90;;;;;;5092688;28;20856;-47
2022/06/18 02:43:21;;;;;;;3.40;2.97;;;17.60;99.90;;;;;;5092759;28;20875;-47
2022/06/18 02:45:54;;;;;;;4.33;3.80;;;17.60;99.90;;;;;;5092772;28;20588;-47
2022/06/18 02:48:24;;;;;;;3.80;3.20;;;17.60;99.90;;;;;;5092470;28;20486;-49
2022/06/18 02:50:51;;;;;;;3.67;3.37;;;17.60;99.90;;;;;;5092505;28;20479;-47
2022/06/18 02:53:18;;;;;;;4.20;3.30;;;17.70;99.90;;;;;;5092638;28;20539;-47
2022/06/18 02:55:46;;;;;;;3.40;3.10;;;17.70;99.90;;;;;;5092904;28;20485;-47
2022/06/18 02:58:17;;;;;;;4.00;3.60;;;17.70;99.90;;;;;;5092360;28;20489;-47
2022/06/18 03:00:48;;;;;;;3.60;3.30;;;17.70;99.90;;;;;;5092487;28;20444;-46
2022/06/18 03:03:17;;;;;;;3.90;3.57;;;17.70;99.90;;;;;;5092626;28;20447;-47
2022/06/18 03:05:44;;;;;;;4.30;3.90;;;17.70;99.90;;;;;;5091876;28;20499;-51
2022/06/18 03:08:13;;;;;;;5.10;3.80;;;17.70;99.90;;;;;;5092781;28;20501;-47
2022/06/18 03:13:24;;;;;;;4.03;3.63;;;17.80;99.90;;;;;;5092292;28;20423;-46
2022/06/18 03:15:56;;;;;;;4.00;3.70;;;17.80;99.90;;;;;;5092324;28;20551;-48
2022/06/18 03:18:28;;;;;;;5.27;3.43;;;17.80;99.90;;;;;;5092089;28;20439;-51
2022/06/18 03:21:00;;;;;;;3.93;3.63;;;17.80;99.90;;;;;;5092226;28;20474;-48
2022/06/18 03:23:28;;;;;;;4.57;3.53;;;17.70;99.90;;;;;;5092117;28;20816;-48
2022/06/18 03:25:55;;;;;;;3.70;3.30;;;17.60;99.90;;;;;;5092052;28;20903;-46
2022/06/18 03:28:23;;;;;;;3.93;3.53;;;17.60;99.90;;;;;;5092131;28;20530;-47
2022/06/18 03:30:51;;;;;;;3.00;2.77;;;17.70;99.90;;;;;;5091467;28;20475;-47
2022/06/18 03:33:18;;;;;;;3.60;3.30;;;17.60;99.90;;;;;;5091763;28;21121;-51
2022/06/18 03:35:48;;;;;;;4.70;3.57;;;17.20;99.90;;;;;;5091658;28;20967;-47
2022/06/18 03:38:16;;;;;;;3.60;3.30;;;17.30;99.90;;;;;;5091941;28;20478;-46
2022/06/18 03:40:45;;;;;;;4.30;3.73;;;17.30;99.90;;;;;;5091704;28;20436;-46
2022/06/18 03:43:12;;;;;;;3.53;3.23;;;17.30;99.90;;;;;;5091795;28;20455;-47
2022/06/18 03:45:43;;;;;;;3.60;3.20;;;17.20;99.90;;;;;;5091671;28;20459;-47
2022/06/18 03:48:17;;;;;;;4.80;3.60;;;17.20;99.90;;;;;;5091496;28;20475;-46
2022/06/18 03:50:44;;;;;;;4.30;3.10;;;17.20;99.90;;;;;;5091524;28;20543;-47
2022/06/18 03:53:12;;;;;;;4.23;3.50;;;17.20;99.90;;;;;;5091948;28;20487;-46
2022/06/18 03:55:40;;;;;;;3.97;3.60;;;17.30;99.90;;;;;;5091159;28;20459;-51
2022/06/18 03:58:07;;;;;;;4.57;3.33;;;17.30;99.90;;;;;;5091575;28;20522;-47
2022/06/18 04:00:35;;;;;;;3.60;3.30;;;17.40;99.90;;;;;;5091311;28;20528;-47
2022/06/18 04:03:01;;;;;;;4.37;3.30;;;17.40;99.90;;;;;;5091477;28;20440;-52
2022/06/18 04:05:29;;;;;;;3.33;3.03;;;17.40;99.90;;;;;;5091223;28;20531;-48
2022/06/18 04:07:56;;;;;;;2.77;2.40;;;17.40;99.90;;;;;;5092099;28;20542;-49
2022/06/18 04:10:25;;;;;;;4.07;3.77;;;17.40;99.90;;;;;;5090943;28;20505;-48
2022/06/18 04:12:52;;;;;;;3.70;3.43;;;17.50;99.90;;;;;;5091121;28;20470;-47
2022/06/18 04:15:19;;;;;;;3.47;3.17;;;17.50;99.90;;;;;;5091556;28;20523;-46
2022/06/18 04:17:47;;;;;;;3.70;3.30;;;17.50;99.90;;;;;;5091618;28;20444;-49
2022/06/18 04:20:20;;;;;;;4.30;3.90;;;17.40;99.90;;;;;;5095185;28;20450;-47
2022/06/18 04:22:48;;;;;;;4.30;3.23;;;17.30;99.90;;;;;;5095642;28;20463;-49
2022/06/18 04:25:15;;;;;;;3.80;3.40;;;17.20;99.90;;;;;;5095594;28;20474;-49
2022/06/18 04:27:44;;;;;;;3.43;3.10;;;17.20;99.90;;;;;;5095351;28;20439;-46
2022/06/18 04:30:12;;;;;;;4.90;4.47;;;17.20;99.90;;;;;;5094988;28;20475;-46
2022/06/18 04:32:39;;;;;;;3.70;3.10;;;17.20;99.90;;;;;;5095087;28;20440;-47
2022/06/18 04:35:08;;;;;;;3.97;3.50;;;17.20;99.90;;;;;;5095177;28;20477;-47
2022/06/18 04:37:35;;;;;;;4.17;3.73;;;17.20;99.90;;;;;;5094892;28;20456;-47
2022/06/18 04:40:03;;;;;;;5.77;3.80;;;17.30;99.90;;;;;;5094955;28;20875;-47
2022/06/18 04:42:30;;;;;;;4.10;3.43;;;17.40;99.90;;;;;;5095328;28;20832;-47
2022/06/18 04:44:58;;;;;;;6.40;4.07;;;17.50;99.90;;;;;;5095196;28;20444;-46
2022/06/18 04:47:25;;;;;;;4.87;3.53;;;17.50;99.90;;;;;;5094880;28;20491;-47
2022/06/18 04:49:53;;;;;;;3.77;3.23;;;17.60;99.90;;;;;;5094663;28;20510;-52
2022/06/18 04:52:20;;;;;;;4.67;3.80;;;17.60;99.90;;;;;;5094868;28;20496;-46
2022/06/18 04:54:47;;;;;;;3.20;2.90;;;17.60;99.90;;;;;;5094833;28;20860;-47
2022/06/18 04:57:14;;;;;;;3.97;3.57;;;17.60;99.90;;;;;;5094984;28;20483;-46
2022/06/18 04:59:41;;;;;;;4.40;4.00;;;17.60;99.90;;;;;;5094464;28;20558;-51
2022/06/18 05:02:24;;;;;;;4.43;4.03;;;17.60;99.90;;;;;;5095033;28;20489;-46
2022/06/18 05:04:51;;;;;;;4.00;3.10;;;17.60;99.90;;;;;;5094911;28;20446;-48
2022/06/18 05:07:18;;;;;;;3.93;3.47;;;17.60;99.90;;;;;;5094423;28;20471;-48
2022/06/18 05:09:44;;;;;;;4.20;3.80;;;17.60;99.90;;;;;;5094395;28;21018;-48
2022/06/18 05:12:13;;;;;;;4.30;3.97;;;17.60;99.90;;;;;;5094326;28;20566;-46
2022/06/18 05:14:40;;;;;;;4.33;4.03;;;17.60;99.90;;;;;;5094660;28;20526;-46
2022/06/18 05:17:13;;;;;;;4.60;4.20;;;17.70;99.90;;;;;;5094612;28;20459;-46
2022/06/18 05:19:40;;;;;;;4.30;3.90;;;17.70;99.90;;;;;;5094097;28;20522;-47
2022/06/18 05:22:07;;;;;;;4.50;4.10;;;17.70;99.90;;;;;;5094468;28;20477;-48
2022/06/18 05:24:35;;;;;;;5.40;4.07;;;17.70;99.90;;;;;;5094085;28;20439;-46
2022/06/18 05:27:03;;;;;;;3.90;3.60;;;17.70;99.90;;;;;;5094533;28;20459;-47
2022/06/18 05:29:30;;;;;;;4.13;3.73;;;17.80;99.90;;;;;;5093951;28;20816;-46
2022/06/18 05:31:57;;;;;;;4.73;4.33;;;17.80;99.90;;;;;;5094067;28;20479;-49
2022/06/18 05:34:25;;;;;;;4.00;3.23;;;17.80;99.90;;;;;;5094488;28;20572;-46
2022/06/18 05:36:52;;;;;;;4.20;3.80;;;17.80;99.90;;;;;;5094242;28;20464;-46
2022/06/18 05:39:20;;;;;;;3.70;3.40;;;17.80;99.90;;;;;;5093714;28;20823;-51
2022/06/18 05:41:47;;;;;;;3.77;3.47;;;17.80;99.90;;;;;;5094115;28;20531;-46
2022/06/18 05:44:14;;;;;;;4.30;3.90;;;17.80;99.90;;;;;;5093868;28;20479;-48
2022/06/18 05:46:41;;;;;;;4.27;3.87;;;17.80;99.90;;;;;;5094209;28;20498;-47
2022/06/18 05:49:09;;;;;;;7.73;3.77;;;17.80;99.90;;;;;;5093360;28;20931;-47
2022/06/18 05:51:37;;;;;;;5.03;3.60;;;17.90;99.90;;;;;;5093801;28;20528;-52
2022/06/18 05:54:04;;;;;;;5.27;4.83;;;18.00;99.90;;;;;;5093494;28;20444;-49
2022/06/18 05:56:31;;;;;;;5.30;4.30;;;18.00;99.90;;;;;;5093743;28;20491;-47
2022/06/18 05:58:58;;;;;;;6.20;5.60;;;18.10;99.90;;;;;;5093798;28;20908;-49
2022/06/18 06:01:25;;;;;;;5.23;4.60;;;18.10;99.90;;;;;;5093927;28;20463;-48
2022/06/18 06:03:52;;;;;;;4.33;3.93;;;18.10;99.90;;;;;;5093532;28;20940;-47
2022/06/18 06:06:19;;;;;;;5.37;3.60;;;18.30;99.90;;;;;;5093611;28;20510;-48
2022/06/18 06:08:47;;;;;;;3.60;3.30;;;18.80;99.90;;;;;;5093304;28;20463;-45
2022/06/18 06:11:28;;;;;;;8.47;3.80;;;19.40;99.90;;;;;;5093295;28;20478;-47
2022/06/18 06:13:56;;;;;;;4.07;3.70;;;20.00;99.90;;;;;;5093081;28;20444;-51
2022/06/18 06:16:22;;;;;;;3.23;2.93;;;20.60;99.90;;;;;;5093339;28;20463;-47
2022/06/18 06:18:50;;;;;;;3.97;3.57;;;20.90;99.90;;;;;;5093081;28;20456;-47
2022/06/18 06:21:16;;;;;;;3.53;3.10;;;21.10;99.90;;;;;;5093286;28;20463;-46
2022/06/18 06:23:43;;;;;;;6.77;3.70;;;21.00;99.90;;;;;;5093279;28;20489;-47
2022/06/18 06:26:17;;;;;;;10.83;3.60;;;21.00;99.90;;;;;;5093200;28;20967;-47
2022/06/18 06:28:44;;;;;;;3.60;3.30;;;20.90;99.90;;;;;;5092665;28;20467;-44
2022/06/18 06:31:12;;;;;;;2.97;2.77;;;20.80;99.90;;;;;;5093059;28;20479;-47
2022/06/18 06:33:39;;;;;;;3.40;3.03;;;20.70;99.90;;;;;;5092742;28;20452;-50
2022/06/18 06:36:07;;;;;;;3.70;2.53;;;20.60;99.90;;;;;;5092912;28;20431;-47
2022/06/18 06:38:37;;;;;;;3.57;3.27;;;20.60;99.90;;;;;;5092755;28;20450;-47
2022/06/18 06:41:06;;;;;;;3.90;3.60;;;20.60;99.90;;;;;;5092182;28;20440;-48
2022/06/18 06:43:35;;;;;;;3.07;2.87;;;20.50;99.90;;;;;;5092605;28;20483;-49
2022/06/18 06:46:02;;;;;;;3.33;3.03;;;20.50;99.90;;;;;;5092582;28;20516;-49
2022/06/18 06:48:29;;;;;;;2.67;2.47;;;20.50;99.90;;;;;;5092247;28;21039;-48
2022/06/18 06:50:55;;;;;;;2.90;2.60;;;20.40;99.90;;;;;;5092514;28;20471;-51
2022/06/18 06:53:22;;;;;;;3.60;3.30;;;20.40;99.90;;;;;;5092312;28;20493;-47
2022/06/18 06:58:35;;;;;;;3.80;3.50;;;20.50;99.90;;;;;;5092484;28;20418;-47
2022/06/18 07:01:03;;;;;;;4.37;2.80;;;20.50;99.90;;;;;;5092411;28;20580;-51
2022/06/18 07:03:32;;;;;;;3.20;3.00;;;20.50;99.90;;;;;;5092355;28;20435;-47
2022/06/18 07:06:01;;;;;;;3.23;2.93;;;20.40;99.90;;;;;;5092522;28;20562;-50
2022/06/18 07:08:28;;;;;;;3.37;3.07;;;20.50;99.90;;;;;;5092466;28;20500;-47
2022/06/18 07:10:56;;;;;;;3.37;3.07;;;20.60;99.90;;;;;;5092222;28;20524;-50
2022/06/18 07:13:23;;;;;;;3.07;2.87;;;20.70;99.90;;;;;;5092317;28;20539;-48
2022/06/18 07:15:53;;;;;;;4.20;3.20;;;20.70;98.90;;;;;;5092329;28;20540;-48
2022/06/18 07:18:25;;;;;;;3.63;3.33;;;20.90;98.30;;;;;;5092099;28;20450;-47
2022/06/18 07:20:52;;;;;;;3.40;2.87;;;21.00;97.60;;;;;;5091962;28;20447;-47
2022/06/18 07:23:19;;;;;;;4.00;3.17;;;21.10;97.30;;;;;;5091922;28;20479;-47
2022/06/18 07:25:46;;;;;;;3.67;3.37;;;21.20;97.40;;;;;;5091891;28;20519;-48
2022/06/18 07:28:13;;;;;;;3.73;3.33;;;21.40;98.20;;;;;;5091940;28;20471;-47
2022/06/18 07:30:40;;;;;;;3.80;3.43;;;21.50;99.30;;;;;;5091398;28;20982;-52
2022/06/18 07:33:14;;;;;;;3.77;3.47;;;21.50;99.40;;;;;;5091468;28;20851;-47
2022/06/18 07:35:40;;;;;;;3.60;3.30;;;21.20;99.50;;;;;;5091705;28;20495;-48
2022/06/18 07:38:08;;;;;;;3.77;3.47;;;21.00;99.90;;;;;;5091470;28;20988;-47
2022/06/18 07:40:40;;;;;;;4.10;3.63;;;21.30;99.90;;;;;;5091714;28;20526;-51
2022/06/18 07:43:09;;;;;;;3.87;3.57;;;21.30;99.90;;;;;;5091894;28;20450;-50
2022/06/18 07:45:36;;;;;;;4.53;4.13;;;21.50;99.80;;;;;;5091586;28;21017;-48
2022/06/18 07:48:03;;;;;;;4.10;3.07;;;21.60;99.80;;;;;;5091442;28;20568;-50
2022/06/18 07:50:32;;;;;;;3.40;3.10;;;21.70;99.80;;;;;;5090936;28;20439;-47
2022/06/18 07:52:59;;;;;;;3.37;3.07;;;21.70;99.40;;;;;;5090504;28;21045;-47
2022/06/18 07:55:28;;;;;;;3.80;3.50;;;21.80;98.90;;;;;;5091212;28;20871;-51
2022/06/18 07:57:55;;;;;;;3.30;3.00;;;21.90;98.90;;;;;;5091547;28;20526;-48
2022/06/18 08:00:24;;;;;;;3.47;3.17;;;21.90;99.70;;;;;;5091452;28;20836;-51
2022/06/18 08:02:51;;;;;;;3.77;3.43;;;22.00;99.10;;;;;;5091876;28;20435;-48
2022/06/18 08:05:22;;;;;;;3.90;3.60;;;22.10;99.90;;;;;;5092037;28;20947;-51
2022/06/18 08:07:51;;;;;;;4.10;3.80;;;22.00;99.90;;;;;;5092421;28;20436;-47
2022/06/18 08:10:18;;;;;;;3.37;3.10;;;22.10;99.90;;;;;;5091514;28;20471;-49
2022/06/18 08:12:45;;;;;;;3.93;3.47;;;22.20;99.90;;;;;;5091612;28;20505;-48
2022/06/18 08:15:12;;;;;;;5.83;4.03;;;22.50;99.50;;;;;;5091449;28;20467;-47
2022/06/18 08:17:39;;;;;;;4.93;4.37;;;22.70;99.90;;;;;;5091395;28;20474;-48
2022/06/18 08:20:09;;;;;;;3.93;3.60;;;22.90;99.30;;;;;;5091235;28;20474;-47
2022/06/18 08:22:39;;;;;;;4.77;3.90;;;23.10;98.60;;;;;;5090985;28;20439;-49
2022/06/18 08:25:10;;;;;;;3.97;3.67;;;23.20;97.90;;;;;;5091344;28;20439;-47
2022/06/18 08:27:38;;;;;;;3.93;3.63;;;23.30;97.30;;;;;;5091494;28;20475;-47
2022/06/18 08:30:06;;;;;;;4.00;3.70;;;23.30;98.20;;;;;;5090993;28;20765;-47
2022/06/18 08:32:33;;;;;;;3.73;3.43;;;23.20;98.50;;;;;;5090801;28;20567;-48
2022/06/18 08:35:00;;;;;;;4.20;3.80;;;23.20;99.70;;;;;;5091610;28;20490;-48
2022/06/18 08:37:28;;;;;;;3.30;3.10;;;23.40;99.90;;;;;;5091075;28;20491;-47
2022/06/18 08:39:56;;;;;;;4.17;3.23;;;23.30;98.40;;;;;;5090661;28;20435;-48
2022/06/18 08:42:45;;;;;;;5.60;3.77;;;23.00;99.30;;;;;;5091482;28;20436;-48
2022/06/18 08:45:26;;;;;;;3.90;3.60;;;23.10;99.50;;;;;;5091148;28;20439;-49
2022/06/18 08:48:15;;;;;;;4.43;3.70;;;23.20;99.90;;;;;;5090978;28;20481;-51
2022/06/18 08:50:51;;;;;;;3.53;3.23;;;23.20;98.80;;;;;;5090372;28;20474;-47
2022/06/18 08:53:35;;;;;;;4.23;3.80;;;23.20;98.80;;;;;;5090518;28;20528;-46
2022/06/18 08:56:07;;;;;;;4.10;3.73;;;23.40;98.80;;;;;;5090717;28;20456;-48
2022/06/18 08:58:45;;;;;;;3.90;3.60;;;23.40;98.60;;;;;;5090715;28;20450;-51
2022/06/18 09:01:17;;;;;;;3.97;3.67;;;23.20;99.20;;;;;;5090577;28;20435;-50
2022/06/18 09:04:02;;;;;;;3.97;3.57;;;23.30;99.00;;;;;;5091150;28;20447;-48
2022/06/18 09:06:47;;;;;;;4.27;3.70;;;23.40;99.30;;;;;;5094420;28;20510;-47
2022/06/18 09:09:25;;;;;;;6.50;4.40;;;23.60;97.90;;;;;;5094466;28;20500;-49
2022/06/18 09:12:05;;;;;;;4.50;3.60;;;23.60;99.10;;;;;;5093488;28;20778;-49
2022/06/18 09:14:41;;;;;;;13.33;5.07;;;23.60;99.90;;;;;;5092878;28;20478;-48
2022/06/18 09:17:14;;;;;;;5.33;4.53;;;23.70;99.10;;;;;;5072662;28;20456;-47
2022/06/18 09:19:44;;;;;;;4.60;4.20;;;23.90;99.00;;;;;;5073575;28;20451;-47
2022/06/18 09:22:18;;;;;;;6.00;4.47;;;24.00;97.80;;;;;;5073755;28;20884;-48
2022/06/18 09:24:46;;;;;;;5.27;4.00;;;24.00;98.30;;;;;;5073641;28;20436;-49
2022/06/18 09:27:21;;;;;;;5.83;3.57;;;24.10;98.80;;;;;;5073696;28;20491;-49
2022/06/18 09:29:54;;;;;;;4.40;4.00;;;23.90;96.70;;;;;;5073886;28;20447;-48
2022/06/18 09:32:26;;;;;;;4.27;3.70;;;23.80;96.90;;;;;;5074166;28;20480;-47
2022/06/18 09:35:01;;;;;;;4.03;3.63;;;23.90;96.40;;;;;;5073960;28;20468;-47
2022/06/18 09:37:36;;;;;;;6.00;3.40;;;23.90;96.00;;;;;;5074038;28;20491;-51
2022/06/18 09:40:12;;;;;;;6.43;4.03;;;24.10;96.50;;;;;;5073689;28;20507;-47
2022/06/18 09:42:46;;;;;;;4.47;4.07;;;24.30;96.10;;;;;;5074063;28;20448;-48
2022/06/18 09:45:20;;;;;;;4.40;4.03;;;24.40;95.90;;;;;;5074128;28;20482;-48
2022/06/18 09:47:49;;;;;;;4.13;3.47;;;24.30;96.90;;;;;;5073883;28;20995;-47
2022/06/18 09:50:21;;;;;;;4.07;3.53;;;24.30;95.70;;;;;;5073126;28;20475;-47
2022/06/18 09:52:53;;;;;;;11.10;4.00;;;24.30;95.30;;;;;;5073243;28;20514;-47
2022/06/18 09:55:24;;;;;;;4.50;3.60;;;24.20;96.20;;;;;;5072903;28;20475;-48
2022/06/18 09:57:55;;;;;;;4.53;3.70;;;24.10;94.00;;;;;;5073728;28;20524;-48
2022/06/18 10:00:29;;;;;;;4.07;3.07;;;24.10;94.30;;;;;;5073673;28;20436;-47
2022/06/18 10:02:58;;;;;;;11.50;4.30;;;24.20;96.40;;;;;;5073599;28;20440;-51
2022/06/18 10:08:19;;;;;;;5.67;4.10;;;24.40;96.70;;;;;;5074016;28;20435;-47
2022/06/18 10:10:51;;;;;;;7.00;4.27;;;24.70;96.30;;;;;;5072926;28;20448;-50
2022/06/18 10:13:23;;;;;;;10.50;4.80;;;24.80;96.60;;;;;;5073317;28;20504;-48
2022/06/18 10:15:52;;;;;;;7.20;3.40;;;24.80;97.10;;;;;;5072033;28;21024;-50
2022/06/18 10:18:38;;;;;;;49.83;8.40;;;24.80;95.20;;;;;;5072450;28;20942;-48
2022/06/18 10:21:13;;;;;;;5.43;2.90;;;24.80;93.70;;;;;;5073040;28;20444;-48
2022/06/18 10:23:50;;;;;;;4.30;2.77;;;24.90;93.60;;;;;;5072620;28;20515;-50
2022/06/18 10:26:29;;;;;;;6.77;3.07;;;24.80;94.20;;;;;;5071517;28;20464;-50
2022/06/18 10:29:03;;;;;;;6.67;3.40;;;24.90;93.10;;;;;;5070442;28;21016;-47
2022/06/18 10:31:44;;;;;;;5.53;3.70;;;25.00;94.60;;;;;;5070023;28;20956;-48
2022/06/18 10:34:23;;;;;;;6.30;3.60;;;25.00;96.20;;;;;;5069959;28;20518;-48
2022/06/18 10:37:05;;;;;;;3.37;3.07;;;25.20;94.20;;;;;;5070648;28;20472;-48
2022/06/18 10:39:40;;;;;;;5.60;3.60;;;25.20;94.30;;;;;;5071508;28;20476;-48
2022/06/18 10:42:29;;;;;;;3.47;2.80;;;25.30;92.00;;;;;;5072504;28;20441;-48
2022/06/18 10:45:10;;;;;;;7.63;3.80;;;25.30;92.50;;;;;;5071257;28;20506;-49
2022/06/18 10:47:41;;;;;;;5.53;3.47;;;25.40;91.80;;;;;;5071050;28;20536;-48
2022/06/18 10:50:11;;;;;;;3.43;3.07;;;25.50;94.60;;;;;;5070707;28;20540;-50
2022/06/18 10:52:38;;;;;;;4.33;3.93;;;25.60;93.30;;;;;;5071003;28;20476;-48
2022/06/18 10:55:11;;;;;;;10.10;4.17;;;25.60;96.50;;;;;;5070900;28;20449;-48
2022/06/18 10:57:38;;;;;;;4.53;3.70;;;25.70;97.00;;;;;;5070543;28;20663;-48
2022/06/18 11:00:14;;;;;;;6.73;3.73;;;25.80;95.60;;;;;;5071784;28;20444;-48
2022/06/18 11:02:43;;;;;;;3.90;3.60;;;25.80;94.90;;;;;;5071588;28;20410;-53
2022/06/18 11:05:24;;;;;;;9.53;4.23;;;25.90;96.40;;;;;;5071798;28;20949;-48
2022/06/18 11:07:54;;;;;;;4.03;3.50;;;26.00;95.70;;;;;;5071489;28;20444;-50
2022/06/18 11:10:38;;;;;;;4.07;3.67;;;26.00;96.30;;;;;;5071792;28;20524;-47
2022/06/18 11:13:07;;;;;;;3.63;3.33;;;26.00;96.70;;;;;;5069027;28;20562;-48
2022/06/18 11:15:36;;;;;;;3.63;3.33;;;26.10;93.30;;;;;;5071270;28;20968;-49
2022/06/18 11:18:16;;;;;;;3.90;3.60;;;26.10;94.00;;;;;;5069949;28;20459;-49
2022/06/18 11:20:59;;;;;;;3.37;2.90;;;26.00;92.40;;;;;;5071637;28;20451;-48
2022/06/18 11:23:26;;;;;;;3.20;2.90;;;26.00;91.30;;;;;;5071855;28;20466;-50
2022/06/18 11:25:58;;;;;;;2.97;2.60;;;26.10;93.40;;;;;;5071835;28;20848;-48
2022/06/18 11:28:29;;;;;;;4.80;2.93;;;26.10;91.70;;;;;;5069875;28;20478;-50
2022/06/18 11:30:57;;;;;;;3.23;2.10;;;26.10;91.80;;;;;;5069902;28;20480;-49
2022/06/18 11:33:32;;;;;;;3.30;3.00;;;26.20;92.30;;;;;;5070252;28;20480;-48
2022/06/18 11:36:07;;;;;;;4.87;2.80;;;26.20;93.30;;;;;;5070232;28;20554;-48
2022/06/18 11:38:36;;;;;;;2.90;2.67;;;26.20;92.30;;;;;;5071066;28;20440;-50
2022/06/18 11:41:19;;;;;;;4.23;3.23;;;26.30;92.30;;;;;;5089938;28;20933;-48
2022/06/18 11:43:52;;;;;;;2.47;2.27;;;26.40;92.90;;;;;;5070025;28;20440;-50
2022/06/18 11:46:23;;;;;;;2.67;2.37;;;26.50;92.20;;;;;;5085049;28;20498;-48
2022/06/18 11:48:59;;;;;;;5.00;2.40;;;26.60;92.40;;;;;;5091294;28;20446;-51
2022/06/18 11:51:31;;;;;;;2.20;1.70;;;26.70;90.50;;;;;;5091684;28;20492;-51
2022/06/18 11:54:10;;;;;;;2.73;2.20;;;26.80;85.00;;;;;;5091513;28;20562;-48
2022/06/18 11:56:47;;;;;;;2.17;1.80;;;26.80;88.20;;;;;;5091616;28;20562;-48
2022/06/18 11:59:21;;;;;;;2.33;2.00;;;26.90;86.80;;;;;;5091629;28;20872;-48
2022/06/18 12:01:51;;;;;;;1.87;1.73;;;27.00;89.60;;;;;;5091289;28;20450;-50
2022/06/18 12:04:25;;;;;;;3.50;2.00;;;27.00;86.20;;;;;;5090352;28;20579;-50
2022/06/18 12:06:56;;;;;;;2.80;2.30;;;27.20;87.60;;;;;;5090223;28;20467;-48
2022/06/18 12:09:24;;;;;;;2.97;1.80;;;27.20;86.30;;;;;;5089547;28;20814;-53
2022/06/18 12:12:18;;;;;;;5.97;2.27;;;27.30;86.40;;;;;;5090305;28;20531;-51
2022/06/18 12:14:51;;;;;;;2.33;2.13;;;27.40;87.10;;;;;;5090857;28;20451;-50
2022/06/18 12:17:24;;;;;;;3.80;2.70;;;27.40;85.60;;;;;;5091103;28;20463;-48
2022/06/18 12:19:59;;;;;;;6.60;3.07;;;27.50;83.80;;;;;;5090916;28;20501;-48
2022/06/18 12:22:32;;;;;;;5.00;2.63;;;27.50;84.10;;;;;;5091357;28;20492;-49
2022/06/18 12:25:14;;;;;;;6.17;2.43;;;27.60;83.80;;;;;;5091249;28;20482;-48
2022/06/18 12:27:47;;;;;;;5.13;2.60;;;27.60;81.00;;;;;;5091470;28;20497;-48
2022/06/18 12:30:19;;;;;;;2.93;1.90;;;27.60;82.50;;;;;;5090595;28;20504;-51
2022/06/18 12:32:54;;;;;;;3.20;2.37;;;27.60;82.20;;;;;;5091204;28;20474;-48
2022/06/18 12:35:33;;;;;;;3.20;2.60;;;27.70;84.40;;;;;;5091035;28;20860;-48
2022/06/18 12:38:18;;;;;;;3.50;2.50;;;27.80;82.80;;;;;;5091664;28;20439;-48
2022/06/18 12:40:53;;;;;;;4.77;2.63;;;27.80;82.80;;;;;;5095376;28;20466;-48
2022/06/18 12:43:27;;;;;;;6.57;2.57;;;27.90;82.20;;;;;;5095741;28;20439;-47
2022/06/18 12:46:00;;;;;;;4.57;2.63;;;28.00;80.20;;;;;;5095351;28;20550;-48
2022/06/18 12:48:40;;;;;;;5.83;2.27;;;28.10;82.10;;;;;;5095048;28;20467;-48
2022/06/18 12:51:14;;;;;;;3.90;2.70;;;28.10;81.80;;;;;;5095142;28;20468;-48
2022/06/18 12:54:09;;;;;;;6.53;2.37;;;28.10;79.80;;;;;;5095001;28;20978;-48
2022/06/18 12:56:46;;;;;;;5.43;2.50;;;28.10;83.60;;;;;;5094872;28;20973;-48
2022/06/18 12:59:22;;;;;;;5.83;2.97;;;28.10;83.30;;;;;;5094871;28;20478;-49
2022/06/18 13:01:56;;;;;;;5.80;2.67;;;28.10;81.40;;;;;;5094470;28;20431;-49
2022/06/18 13:04:58;;;;;;;4.93;2.23;;;28.10;82.40;;;;;;5094908;28;20776;-48
2022/06/18 13:07:37;;;;;;;9.67;2.70;;;28.10;83.10;;;;;;5094715;28;21009;-50
2022/06/18 13:10:11;;;;;;;4.90;2.60;;;28.20;86.10;;;;;;5094302;28;20431;-48
2022/06/18 13:12:50;;;;;;;9.40;2.50;;;28.30;84.30;;;;;;5094681;28;20999;-48
2022/06/18 13:15:31;;;;;;;9.20;2.87;;;28.30;79.80;;;;;;5094627;28;20482;-49
2022/06/18 13:18:05;;;;;;;3.30;2.27;;;28.30;78.80;;;;;;5094456;28;20500;-48